EDDR/SCN METAR and TAF weather

Enter ICAO airport designator
Station Type Date Time Source
EDDR METAR 2018/01/23 01:20 UTC NOAA

EDDR 230120Z AUTO 26005KT 9999 // BKN034/// 05/03 Q1022


Station Type Date Time Source
EDDR Decoded METAR 2018/01/23 01:20 UTC NOAA

Saarbruecken / Ensheim, Germany (EDDR) 49-13N 007-07E 320M
Jan 22, 2018 - 08:20 PM EST / 2018.01.23 0120 UTC
Wind: from the W (260 degrees) at 6 MPH (5 KT):0
Visibility: greater than 7 mile(s):0
Sky conditions: mostly cloudy
Temperature: 41 F (5 C)
Dew Point: 37 F (3 C)
Relative Humidity: 86%
Pressure (altimeter): 30.18 in. Hg (1022 hPa)
ob: EDDR 230120Z AUTO 26005KT 9999 // BKN034/// 05/03 Q1022
cycle: 1

Station Type Date Time Source
EDDR TAF 2018/01/22 18:27 UTC NOAA

TAF EDDR 221700Z 2218/2318 29007KT 9999 SCT030
BECMG 2302/2304 23006KT
TEMPO 2302/2308 4000 BR BKN010
BECMG 2309/2311 23011KT


Example: see airport list